Weather at Cowichan District Hospital Heliport

Public forecast

Using degrees Celsius for public forecast. Weather courtesy of forecast.io.

Closest aviation weather report (METAR) to Cowichan District Hospital Heliport

Closest report is Victoria International Airport, 14.4 nm (26.6 km) SE. Retrieved 2020/09/22 23:00 UTC (36 minutes ago):

CYYJ 222300Z 14010KT 20SM BKN066 BKN100 16/11 A2998 RMK AC6AC1 SLP153 DENSITY ALT 200FT

Closest aviation forecast (TAF) to Cowichan District Hospital Heliport

Closest forecast is Victoria International Airport, 14.4 nm (26.6 km) SE. Retrieved 2020/09/22 18:39 UTC (5 hours ago):

TAF CYYJ 221738Z 2218/2318 13008KT P6SM FEW080 SCT180 FM230300 VRB03KT P6SM SCT030 BKN080 TEMPO 2303/2311 P6SM -SHRA BKN030 FM231100 15012G22KT P6SM -RA SCT015 OVC030 TEMPO 2311/2314 3SM -RA BR SCT008 OVC015 FM231400 15012G22KT P6SM SCT008 OVC040 TEMPO 2314/2318 5SM -RA BR BKN008 OVC015 RMK NXT FCST BY 230000Z